sensor_id;sensor_type;location;lat;lon;timestamp;temperature;humidity
64654;DHT22;51065;48.884;12.598;2023-07-22T00:02:05;14.90;99.90
64654;DHT22;51065;48.884;12.598;2023-07-22T00:04:31;14.90;99.90
64654;DHT22;51065;48.884;12.598;2023-07-22T00:06:56;14.90;99.90
64654;DHT22;51065;48.884;12.598;2023-07-22T00:09:22;14.80;99.90
64654;DHT22;51065;48.884;12.598;2023-07-22T00:11:49;14.70;99.90
64654;DHT22;51065;48.884;12.598;2023-07-22T00:14:15;14.60;99.90
64654;DHT22;51065;48.884;12.598;2023-07-22T00:16:40;14.50;99.90
64654;DHT22;51065;48.884;12.598;2023-07-22T00:19:06;14.50;99.90
64654;DHT22;51065;48.884;12.598;2023-07-22T00:21:32;14.50;99.90
64654;DHT22;51065;48.884;12.598;2023-07-22T00:24:00;14.40;99.90
64654;DHT22;51065;48.884;12.598;2023-07-22T00:26:25;14.40;99.90
64654;DHT22;51065;48.884;12.598;2023-07-22T00:28:51;14.30;99.90
64654;DHT22;51065;48.884;12.598;2023-07-22T00:31:19;14.30;99.90
64654;DHT22;51065;48.884;12.598;2023-07-22T00:33:45;14.20;99.90
64654;DHT22;51065;48.884;12.598;2023-07-22T00:36:11;14.10;99.90
64654;DHT22;51065;48.884;12.598;2023-07-22T00:38:36;14.20;99.90
64654;DHT22;51065;48.884;12.598;2023-07-22T00:41:02;14.10;99.90
64654;DHT22;51065;48.884;12.598;2023-07-22T00:43:30;14.10;99.90
64654;DHT22;51065;48.884;12.598;2023-07-22T00:45:56;14.10;99.90
64654;DHT22;51065;48.884;12.598;2023-07-22T00:48:21;14.00;99.90
64654;DHT22;51065;48.884;12.598;2023-07-22T00:50:47;13.90;99.90
64654;DHT22;51065;48.884;12.598;2023-07-22T00:53:13;13.90;99.90
64654;DHT22;51065;48.884;12.598;2023-07-22T00:55:40;13.90;99.90
64654;DHT22;51065;48.884;12.598;2023-07-22T00:58:08;13.90;99.90
64654;DHT22;51065;48.884;12.598;2023-07-22T01:00:34;13.80;99.90
64654;DHT22;51065;48.884;12.598;2023-07-22T01:02:59;13.70;99.90
64654;DHT22;51065;48.884;12.598;2023-07-22T01:05:26;13.60;99.90
64654;DHT22;51065;48.884;12.598;2023-07-22T01:07:53;13.50;99.90
64654;DHT22;51065;48.884;12.598;2023-07-22T01:10:19;13.50;99.90
64654;DHT22;51065;48.884;12.598;2023-07-22T01:12:45;13.40;99.90
64654;DHT22;51065;48.884;12.598;2023-07-22T01:15:11;13.40;99.90
64654;DHT22;51065;48.884;12.598;2023-07-22T01:17:37;13.40;99.90
64654;DHT22;51065;48.884;12.598;2023-07-22T01:20:04;13.40;99.90
64654;DHT22;51065;48.884;12.598;2023-07-22T01:22:31;13.50;99.90
64654;DHT22;51065;48.884;12.598;2023-07-22T01:24:58;13.40;99.90
64654;DHT22;51065;48.884;12.598;2023-07-22T01:27:23;13.40;99.90
64654;DHT22;51065;48.884;12.598;2023-07-22T01:29:52;13.30;99.90
64654;DHT22;51065;48.884;12.598;2023-07-22T01:32:18;13.50;99.90
64654;DHT22;51065;48.884;12.598;2023-07-22T01:34:45;13.40;99.90
64654;DHT22;51065;48.884;12.598;2023-07-22T01:37:11;13.30;99.90
64654;DHT22;51065;48.884;12.598;2023-07-22T01:39:36;13.30;99.90
64654;DHT22;51065;48.884;12.598;2023-07-22T01:42:02;13.30;99.90
64654;DHT22;51065;48.884;12.598;2023-07-22T01:44:28;13.20;99.90
64654;DHT22;51065;48.884;12.598;2023-07-22T01:46:54;13.10;99.90
64654;DHT22;51065;48.884;12.598;2023-07-22T01:49:19;13.00;99.90
64654;DHT22;51065;48.884;12.598;2023-07-22T01:51:45;12.80;99.90
64654;DHT22;51065;48.884;12.598;2023-07-22T01:54:11;12.90;99.90
64654;DHT22;51065;48.884;12.598;2023-07-22T01:56:38;12.70;99.90
64654;DHT22;51065;48.884;12.598;2023-07-22T01:59:04;12.50;99.90
64654;DHT22;51065;48.884;12.598;2023-07-22T02:01:31;12.40;99.90
64654;DHT22;51065;48.884;12.598;2023-07-22T02:03:56;12.40;99.90
64654;DHT22;51065;48.884;12.598;2023-07-22T02:06:22;12.30;99.90
64654;DHT22;51065;48.884;12.598;2023-07-22T02:08:48;12.30;99.90
64654;DHT22;51065;48.884;12.598;2023-07-22T02:11:14;12.20;99.90
64654;DHT22;51065;48.884;12.598;2023-07-22T02:13:39;12.20;99.90
64654;DHT22;51065;48.884;12.598;2023-07-22T02:16:05;12.10;99.90
64654;DHT22;51065;48.884;12.598;2023-07-22T02:18:31;12.00;99.90
64654;DHT22;51065;48.884;12.598;2023-07-22T02:20:56;11.90;99.90
64654;DHT22;51065;48.884;12.598;2023-07-22T02:23:23;11.80;99.90
64654;DHT22;51065;48.884;12.598;2023-07-22T02:25:53;11.70;99.90
64654;DHT22;51065;48.884;12.598;2023-07-22T02:28:20;11.70;99.90
64654;DHT22;51065;48.884;12.598;2023-07-22T02:30:50;11.70;99.90
64654;DHT22;51065;48.884;12.598;2023-07-22T02:33:18;11.90;99.90
64654;DHT22;51065;48.884;12.598;2023-07-22T02:35:44;12.10;99.90
64654;DHT22;51065;48.884;12.598;2023-07-22T02:38:10;12.30;99.90
64654;DHT22;51065;48.884;12.598;2023-07-22T02:40:39;12.30;99.90
64654;DHT22;51065;48.884;12.598;2023-07-22T02:43:04;12.40;99.90
64654;DHT22;51065;48.884;12.598;2023-07-22T02:45:35;12.20;99.90
64654;DHT22;51065;48.884;12.598;2023-07-22T02:48:01;12.00;99.90
64654;DHT22;51065;48.884;12.598;2023-07-22T02:50:27;11.80;99.90
64654;DHT22;51065;48.884;12.598;2023-07-22T02:52:53;11.70;99.90
64654;DHT22;51065;48.884;12.598;2023-07-22T02:55:18;11.60;99.90
64654;DHT22;51065;48.884;12.598;2023-07-22T02:57:44;11.50;99.90
64654;DHT22;51065;48.884;12.598;2023-07-22T03:00:12;11.30;99.90
64654;DHT22;51065;48.884;12.598;2023-07-22T03:02:39;11.20;99.90
64654;DHT22;51065;48.884;12.598;2023-07-22T03:05:06;11.20;99.90
64654;DHT22;51065;48.884;12.598;2023-07-22T03:07:37;11.20;99.90
64654;DHT22;51065;48.884;12.598;2023-07-22T03:10:06;11.30;99.90
64654;DHT22;51065;48.884;12.598;2023-07-22T03:12:33;11.40;99.90
64654;DHT22;51065;48.884;12.598;2023-07-22T03:14:59;11.40;99.90
64654;DHT22;51065;48.884;12.598;2023-07-22T03:17:24;11.50;99.90
64654;DHT22;51065;48.884;12.598;2023-07-22T03:19:50;11.50;99.90
64654;DHT22;51065;48.884;12.598;2023-07-22T03:22:17;11.60;99.90
64654;DHT22;51065;48.884;12.598;2023-07-22T03:24:43;11.70;99.90
64654;DHT22;51065;48.884;12.598;2023-07-22T03:27:09;11.70;99.90
64654;DHT22;51065;48.884;12.598;2023-07-22T03:29:35;11.60;99.90
64654;DHT22;51065;48.884;12.598;2023-07-22T03:32:00;11.50;99.90
64654;DHT22;51065;48.884;12.598;2023-07-22T03:34:30;11.50;99.90
64654;DHT22;51065;48.884;12.598;2023-07-22T03:36:55;11.40;99.90
64654;DHT22;51065;48.884;12.598;2023-07-22T03:39:21;11.40;99.90
64654;DHT22;51065;48.884;12.598;2023-07-22T03:41:47;11.50;99.90
64654;DHT22;51065;48.884;12.598;2023-07-22T03:44:12;11.60;99.90
64654;DHT22;51065;48.884;12.598;2023-07-22T03:46:38;11.50;99.90
64654;DHT22;51065;48.884;12.598;2023-07-22T03:49:04;11.50;99.90
64654;DHT22;51065;48.884;12.598;2023-07-22T03:51:30;11.50;99.90
64654;DHT22;51065;48.884;12.598;2023-07-22T03:53:55;11.60;99.90
64654;DHT22;51065;48.884;12.598;2023-07-22T03:56:21;11.60;99.90
64654;DHT22;51065;48.884;12.598;2023-07-22T03:58:49;11.70;99.90
64654;DHT22;51065;48.884;12.598;2023-07-22T04:01:15;11.80;99.90
64654;DHT22;51065;48.884;12.598;2023-07-22T04:03:40;11.80;99.90
64654;DHT22;51065;48.884;12.598;2023-07-22T04:06:06;11.70;99.90
64654;DHT22;51065;48.884;12.598;2023-07-22T04:08:31;11.70;99.90
64654;DHT22;51065;48.884;12.598;2023-07-22T04:10:58;11.70;99.90
64654;DHT22;51065;48.884;12.598;2023-07-22T04:13:25;11.70;99.90
64654;DHT22;51065;48.884;12.598;2023-07-22T04:15:51;11.80;99.90
64654;DHT22;51065;48.884;12.598;2023-07-22T04:18:17;11.90;99.90
64654;DHT22;51065;48.884;12.598;2023-07-22T04:20:44;12.10;99.90
64654;DHT22;51065;48.884;12.598;2023-07-22T04:23:10;12.20;99.90
64654;DHT22;51065;48.884;12.598;2023-07-22T04:25:44;12.20;99.90
64654;DHT22;51065;48.884;12.598;2023-07-22T04:28:13;12.30;99.90
64654;DHT22;51065;48.884;12.598;2023-07-22T04:30:39;12.30;99.90
64654;DHT22;51065;48.884;12.598;2023-07-22T04:33:05;12.40;99.90
64654;DHT22;51065;48.884;12.598;2023-07-22T04:35:32;12.60;99.90
64654;DHT22;51065;48.884;12.598;2023-07-22T04:37:58;12.80;99.90
64654;DHT22;51065;48.884;12.598;2023-07-22T04:40:23;13.30;99.90
64654;DHT22;51065;48.884;12.598;2023-07-22T04:42:50;13.80;99.90
64654;DHT22;51065;48.884;12.598;2023-07-22T04:45:16;14.40;99.90
64654;DHT22;51065;48.884;12.598;2023-07-22T04:47:43;14.90;99.90
64654;DHT22;51065;48.884;12.598;2023-07-22T04:50:12;15.40;99.90
64654;DHT22;51065;48.884;12.598;2023-07-22T04:52:38;15.80;99.90
64654;DHT22;51065;48.884;12.598;2023-07-22T04:55:04;16.20;99.90
64654;DHT22;51065;48.884;12.598;2023-07-22T04:57:35;16.40;99.90
64654;DHT22;51065;48.884;12.598;2023-07-22T05:00:01;16.70;99.90
64654;DHT22;51065;48.884;12.598;2023-07-22T05:02:29;17.10;99.90
64654;DHT22;51065;48.884;12.598;2023-07-22T05:04:56;17.40;99.90
64654;DHT22;51065;48.884;12.598;2023-07-22T05:07:21;17.70;99.90
64654;DHT22;51065;48.884;12.598;2023-07-22T05:09:47;17.90;99.90
64654;DHT22;51065;48.884;12.598;2023-07-22T05:12:12;18.20;99.90
64654;DHT22;51065;48.884;12.598;2023-07-22T05:14:38;18.40;99.90
64654;DHT22;51065;48.884;12.598;2023-07-22T05:17:04;18.60;99.90
64654;DHT22;51065;48.884;12.598;2023-07-22T05:19:29;18.80;99.90
64654;DHT22;51065;48.884;12.598;2023-07-22T05:21:55;18.70;99.90
64654;DHT22;51065;48.884;12.598;2023-07-22T05:24:20;18.80;99.90
64654;DHT22;51065;48.884;12.598;2023-07-22T05:26:46;18.90;99.90
64654;DHT22;51065;48.884;12.598;2023-07-22T05:29:12;18.90;99.90
64654;DHT22;51065;48.884;12.598;2023-07-22T05:31:38;18.90;99.90
64654;DHT22;51065;48.884;12.598;2023-07-22T05:34:03;18.60;99.90
64654;DHT22;51065;48.884;12.598;2023-07-22T05:36:29;18.60;99.90
64654;DHT22;51065;48.884;12.598;2023-07-22T05:38:55;18.80;99.90
64654;DHT22;51065;48.884;12.598;2023-07-22T05:41:21;18.90;99.90
64654;DHT22;51065;48.884;12.598;2023-07-22T05:43:46;18.80;99.90
64654;DHT22;51065;48.884;12.598;2023-07-22T05:46:12;18.90;99.90
64654;DHT22;51065;48.884;12.598;2023-07-22T05:48:37;19.20;99.90
64654;DHT22;51065;48.884;12.598;2023-07-22T05:51:03;19.40;99.90
64654;DHT22;51065;48.884;12.598;2023-07-22T05:53:29;19.80;99.90
64654;DHT22;51065;48.884;12.598;2023-07-22T05:55:54;19.70;99.90
64654;DHT22;51065;48.884;12.598;2023-07-22T05:58:20;20.00;99.90
64654;DHT22;51065;48.884;12.598;2023-07-22T06:00:45;19.80;99.90
64654;DHT22;51065;48.884;12.598;2023-07-22T06:03:15;19.70;99.90
64654;DHT22;51065;48.884;12.598;2023-07-22T06:05:41;19.90;99.90
64654;DHT22;51065;48.884;12.598;2023-07-22T06:08:07;20.10;99.90
64654;DHT22;51065;48.884;12.598;2023-07-22T06:10:33;20.10;99.90
64654;DHT22;51065;48.884;12.598;2023-07-22T06:12:58;20.40;99.90
64654;DHT22;51065;48.884;12.598;2023-07-22T06:15:24;20.40;99.90
64654;DHT22;51065;48.884;12.598;2023-07-22T06:17:49;20.60;99.90
64654;DHT22;51065;48.884;12.598;2023-07-22T06:20:15;20.90;99.90
64654;DHT22;51065;48.884;12.598;2023-07-22T06:22:40;21.00;99.90
64654;DHT22;51065;48.884;12.598;2023-07-22T06:25:06;20.90;99.90
64654;DHT22;51065;48.884;12.598;2023-07-22T06:27:33;21.20;99.90
64654;DHT22;51065;48.884;12.598;2023-07-22T06:29:58;21.30;99.90
64654;DHT22;51065;48.884;12.598;2023-07-22T06:32:24;22.00;99.10
64654;DHT22;51065;48.884;12.598;2023-07-22T06:34:49;22.20;99.40
64654;DHT22;51065;48.884;12.598;2023-07-22T06:37:15;22.50;96.10
64654;DHT22;51065;48.884;12.598;2023-07-22T06:39:40;22.40;95.30
64654;DHT22;51065;48.884;12.598;2023-07-22T06:42:06;22.10;97.20
64654;DHT22;51065;48.884;12.598;2023-07-22T06:44:32;22.20;98.80
64654;DHT22;51065;48.884;12.598;2023-07-22T06:46:57;22.50;93.50
64654;DHT22;51065;48.884;12.598;2023-07-22T06:49:23;22.80;92.40
64654;DHT22;51065;48.884;12.598;2023-07-22T06:51:49;23.10;90.40
64654;DHT22;51065;48.884;12.598;2023-07-22T06:54:14;23.00;87.60
64654;DHT22;51065;48.884;12.598;2023-07-22T06:56:40;23.30;86.80
64654;DHT22;51065;48.884;12.598;2023-07-22T06:59:05;23.60;78.40
64654;DHT22;51065;48.884;12.598;2023-07-22T07:01:31;23.60;86.50
64654;DHT22;51065;48.884;12.598;2023-07-22T07:03:56;23.50;82.60
64654;DHT22;51065;48.884;12.598;2023-07-22T07:06:22;23.30;80.50
64654;DHT22;51065;48.884;12.598;2023-07-22T07:08:48;22.90;90.30
64654;DHT22;51065;48.884;12.598;2023-07-22T07:11:14;23.40;80.80
64654;DHT22;51065;48.884;12.598;2023-07-22T07:13:39;23.50;76.10
64654;DHT22;51065;48.884;12.598;2023-07-22T07:16:41;23.40;82.00
64654;DHT22;51065;48.884;12.598;2023-07-22T07:19:07;24.10;76.40
64654;DHT22;51065;48.884;12.598;2023-07-22T07:21:32;24.30;70.60
64654;DHT22;51065;48.884;12.598;2023-07-22T07:23:58;24.40;69.50
64654;DHT22;51065;48.884;12.598;2023-07-22T07:26:24;24.50;68.70
64654;DHT22;51065;48.884;12.598;2023-07-22T07:28:50;24.60;68.10
64654;DHT22;51065;48.884;12.598;2023-07-22T07:31:16;24.70;68.60
64654;DHT22;51065;48.884;12.598;2023-07-22T07:33:42;24.60;67.70
64654;DHT22;51065;48.884;12.598;2023-07-22T07:36:08;24.50;72.20
64654;DHT22;51065;48.884;12.598;2023-07-22T07:38:33;25.00;65.20
64654;DHT22;51065;48.884;12.598;2023-07-22T07:41:01;24.60;63.50
64654;DHT22;51065;48.884;12.598;2023-07-22T07:43:27;24.60;63.40
64654;DHT22;51065;48.884;12.598;2023-07-22T07:46:33;24.40;64.30
64654;DHT22;51065;48.884;12.598;2023-07-22T07:48:59;25.30;66.10
64654;DHT22;51065;48.884;12.598;2023-07-22T07:51:27;25.10;61.50
64654;DHT22;51065;48.884;12.598;2023-07-22T07:53:54;25.40;58.90
64654;DHT22;51065;48.884;12.598;2023-07-22T07:56:20;26.30;55.10
64654;DHT22;51065;48.884;12.598;2023-07-22T07:58:47;26.20;55.40
64654;DHT22;51065;48.884;12.598;2023-07-22T08:01:13;25.80;55.40
64654;DHT22;51065;48.884;12.598;2023-07-22T08:03:41;26.20;56.10
64654;DHT22;51065;48.884;12.598;2023-07-22T08:06:07;26.60;53.40
64654;DHT22;51065;48.884;12.598;2023-07-22T08:08:33;26.80;52.10
64654;DHT22;51065;48.884;12.598;2023-07-22T08:11:10;26.60;54.00
64654;DHT22;51065;48.884;12.598;2023-07-22T08:13:37;26.20;54.30
64654;DHT22;51065;48.884;12.598;2023-07-22T08:16:04;26.20;54.60
64654;DHT22;51065;48.884;12.598;2023-07-22T08:18:31;26.30;52.20
64654;DHT22;51065;48.884;12.598;2023-07-22T08:20:57;26.60;52.30
64654;DHT22;51065;48.884;12.598;2023-07-22T08:23:22;26.90;49.80
64654;DHT22;51065;48.884;12.598;2023-07-22T08:25:48;26.70;53.00
64654;DHT22;51065;48.884;12.598;2023-07-22T08:28:14;27.30;52.10
64654;DHT22;51065;48.884;12.598;2023-07-22T08:30:43;27.30;52.00
64654;DHT22;51065;48.884;12.598;2023-07-22T08:33:10;27.30;51.60
64654;DHT22;51065;48.884;12.598;2023-07-22T08:35:39;27.00;49.80
64654;DHT22;51065;48.884;12.598;2023-07-22T08:38:06;27.50;47.90
64654;DHT22;51065;48.884;12.598;2023-07-22T08:40:35;27.50;48.50
64654;DHT22;51065;48.884;12.598;2023-07-22T08:43:03;28.30;47.50
64654;DHT22;51065;48.884;12.598;2023-07-22T08:45:31;28.20;48.30
64654;DHT22;51065;48.884;12.598;2023-07-22T08:47:58;28.50;46.30
64654;DHT22;51065;48.884;12.598;2023-07-22T08:50:29;28.70;47.10
64654;DHT22;51065;48.884;12.598;2023-07-22T08:52:55;28.90;45.50
64654;DHT22;51065;48.884;12.598;2023-07-22T08:55:22;28.50;45.20
64654;DHT22;51065;48.884;12.598;2023-07-22T08:57:48;28.60;47.30
64654;DHT22;51065;48.884;12.598;2023-07-22T09:00:16;29.10;45.30
64654;DHT22;51065;48.884;12.598;2023-07-22T09:02:42;29.50;44.30
64654;DHT22;51065;48.884;12.598;2023-07-22T09:05:08;29.00;43.90
64654;DHT22;51065;48.884;12.598;2023-07-22T09:07:37;28.70;42.20
64654;DHT22;51065;48.884;12.598;2023-07-22T09:10:05;28.60;44.50
64654;DHT22;51065;48.884;12.598;2023-07-22T09:12:33;28.70;44.40
64654;DHT22;51065;48.884;12.598;2023-07-22T09:15:09;28.60;43.60
64654;DHT22;51065;48.884;12.598;2023-07-22T09:17:36;27.90;43.90
64654;DHT22;51065;48.884;12.598;2023-07-22T09:20:03;28.20;46.70
64654;DHT22;51065;48.884;12.598;2023-07-22T09:22:29;28.90;42.20
64654;DHT22;51065;48.884;12.598;2023-07-22T09:25:12;29.50;41.90
64654;DHT22;51065;48.884;12.598;2023-07-22T09:27:39;30.10;40.80
64654;DHT22;51065;48.884;12.598;2023-07-22T09:32:48;30.40;40.80
64654;DHT22;51065;48.884;12.598;2023-07-22T09:35:14;31.00;39.70
64654;DHT22;51065;48.884;12.598;2023-07-22T09:37:39;30.80;39.00
64654;DHT22;51065;48.884;12.598;2023-07-22T09:40:33;30.00;41.00
64654;DHT22;51065;48.884;12.598;2023-07-22T09:43:02;29.70;41.40
64654;DHT22;51065;48.884;12.598;2023-07-22T09:45:30;30.00;40.00
64654;DHT22;51065;48.884;12.598;2023-07-22T09:47:56;30.70;40.30
64654;DHT22;51065;48.884;12.598;2023-07-22T09:50:23;30.00;38.90
64654;DHT22;51065;48.884;12.598;2023-07-22T09:55:20;29.70;42.00
64654;DHT22;51065;48.884;12.598;2023-07-22T09:58:05;28.70;42.60
64654;DHT22;51065;48.884;12.598;2023-07-22T10:00:33;27.70;43.40
64654;DHT22;51065;48.884;12.598;2023-07-22T10:03:01;26.20;46.50
64654;DHT22;51065;48.884;12.598;2023-07-22T10:05:27;25.50;49.40
64654;DHT22;51065;48.884;12.598;2023-07-22T10:07:58;24.90;52.00
64654;DHT22;51065;48.884;12.598;2023-07-22T10:10:48;24.70;49.30
64654;DHT22;51065;48.884;12.598;2023-07-22T10:13:12;25.30;51.10
64654;DHT22;51065;48.884;12.598;2023-07-22T10:15:39;25.20;47.40
64654;DHT22;51065;48.884;12.598;2023-07-22T10:18:04;25.70;47.80
64654;DHT22;51065;48.884;12.598;2023-07-22T10:20:34;24.90;47.00
64654;DHT22;51065;48.884;12.598;2023-07-22T10:23:02;25.30;48.70
64654;DHT22;51065;48.884;12.598;2023-07-22T10:25:30;26.40;48.10
64654;DHT22;51065;48.884;12.598;2023-07-22T10:27:56;27.00;44.00
64654;DHT22;51065;48.884;12.598;2023-07-22T10:30:21;27.70;43.70
64654;DHT22;51065;48.884;12.598;2023-07-22T10:32:51;29.20;41.70
64654;DHT22;51065;48.884;12.598;2023-07-22T10:35:17;30.70;38.50
64654;DHT22;51065;48.884;12.598;2023-07-22T10:37:46;30.30;38.30
64654;DHT22;51065;48.884;12.598;2023-07-22T10:40:28;29.60;39.60
64654;DHT22;51065;48.884;12.598;2023-07-22T10:43:00;30.10;38.80
64654;DHT22;51065;48.884;12.598;2023-07-22T10:45:30;28.80;38.90
64654;DHT22;51065;48.884;12.598;2023-07-22T10:48:08;27.30;41.00
64654;DHT22;51065;48.884;12.598;2023-07-22T10:50:48;26.60;42.70
64654;DHT22;51065;48.884;12.598;2023-07-22T10:58:33;27.90;42.10
64654;DHT22;51065;48.884;12.598;2023-07-22T11:01:39;27.80;40.40
64654;DHT22;51065;48.884;12.598;2023-07-22T11:06:30;27.00;40.90
64654;DHT22;51065;48.884;12.598;2023-07-22T11:08:56;26.40;42.40
64654;DHT22;51065;48.884;12.598;2023-07-22T11:11:40;26.00;41.70
64654;DHT22;51065;48.884;12.598;2023-07-22T11:14:21;26.40;43.30
64654;DHT22;51065;48.884;12.598;2023-07-22T11:16:47;27.90;41.50
64654;DHT22;51065;48.884;12.598;2023-07-22T11:19:21;28.30;38.10
64654;DHT22;51065;48.884;12.598;2023-07-22T11:21:49;28.80;37.40
64654;DHT22;51065;48.884;12.598;2023-07-22T11:24:15;28.60;36.40
64654;DHT22;51065;48.884;12.598;2023-07-22T11:26:41;28.80;35.50
64654;DHT22;51065;48.884;12.598;2023-07-22T11:29:09;29.50;35.70
64654;DHT22;51065;48.884;12.598;2023-07-22T11:31:36;29.40;33.90
64654;DHT22;51065;48.884;12.598;2023-07-22T11:34:03;28.00;36.80
64654;DHT22;51065;48.884;12.598;2023-07-22T11:36:28;27.40;37.30
64654;DHT22;51065;48.884;12.598;2023-07-22T11:39:08;27.20;38.10
64654;DHT22;51065;48.884;12.598;2023-07-22T11:41:40;27.00;37.50
64654;DHT22;51065;48.884;12.598;2023-07-22T11:44:12;26.80;39.50
64654;DHT22;51065;48.884;12.598;2023-07-22T11:46:58;26.70;38.60
64654;DHT22;51065;48.884;12.598;2023-07-22T11:51:51;26.30;38.20
64654;DHT22;51065;48.884;12.598;2023-07-22T11:54:21;26.40;37.90
64654;DHT22;51065;48.884;12.598;2023-07-22T11:56:46;26.40;39.20
64654;DHT22;51065;48.884;12.598;2023-07-22T11:59:12;26.80;39.60
64654;DHT22;51065;48.884;12.598;2023-07-22T12:01:38;27.50;38.60
64654;DHT22;51065;48.884;12.598;2023-07-22T12:04:13;27.30;38.40
64654;DHT22;51065;48.884;12.598;2023-07-22T12:06:39;27.30;38.40
64654;DHT22;51065;48.884;12.598;2023-07-22T12:09:07;26.80;39.50
64654;DHT22;51065;48.884;12.598;2023-07-22T12:11:34;26.20;40.40
64654;DHT22;51065;48.884;12.598;2023-07-22T12:14:10;25.90;43.30
64654;DHT22;51065;48.884;12.598;2023-07-22T12:16:37;26.40;42.70
64654;DHT22;51065;48.884;12.598;2023-07-22T12:19:04;27.10;40.50
64654;DHT22;51065;48.884;12.598;2023-07-22T12:21:29;27.80;39.80
64654;DHT22;51065;48.884;12.598;2023-07-22T12:23:55;28.10;39.20
64654;DHT22;51065;48.884;12.598;2023-07-22T12:26:21;28.00;39.00
64654;DHT22;51065;48.884;12.598;2023-07-22T12:28:46;27.40;40.20
64654;DHT22;51065;48.884;12.598;2023-07-22T12:31:12;27.00;40.90
64654;DHT22;51065;48.884;12.598;2023-07-22T12:33:38;27.50;40.40
64654;DHT22;51065;48.884;12.598;2023-07-22T12:36:03;27.10;40.30
64654;DHT22;51065;48.884;12.598;2023-07-22T12:38:30;27.30;39.20
64654;DHT22;51065;48.884;12.598;2023-07-22T12:40:56;27.10;40.60
64654;DHT22;51065;48.884;12.598;2023-07-22T12:43:21;27.50;41.00
64654;DHT22;51065;48.884;12.598;2023-07-22T12:45:47;28.00;40.50
64654;DHT22;51065;48.884;12.598;2023-07-22T12:48:22;28.40;39.00
64654;DHT22;51065;48.884;12.598;2023-07-22T12:50:50;28.30;38.90
64654;DHT22;51065;48.884;12.598;2023-07-22T12:53:15;29.30;38.20
64654;DHT22;51065;48.884;12.598;2023-07-22T12:55:41;29.00;37.60
64654;DHT22;51065;48.884;12.598;2023-07-22T12:58:07;29.60;36.20
64654;DHT22;51065;48.884;12.598;2023-07-22T13:00:33;29.90;35.00
64654;DHT22;51065;48.884;12.598;2023-07-22T13:02:58;29.90;33.40
64654;DHT22;51065;48.884;12.598;2023-07-22T13:05:24;29.90;33.60
64654;DHT22;51065;48.884;12.598;2023-07-22T13:07:50;29.10;33.80
64654;DHT22;51065;48.884;12.598;2023-07-22T13:10:16;29.20;34.90
64654;DHT22;51065;48.884;12.598;2023-07-22T13:12:44;28.70;34.10
64654;DHT22;51065;48.884;12.598;2023-07-22T13:15:10;28.80;36.30
64654;DHT22;51065;48.884;12.598;2023-07-22T13:17:35;29.60;35.20
64654;DHT22;51065;48.884;12.598;2023-07-22T13:20:02;29.40;35.20
64654;DHT22;51065;48.884;12.598;2023-07-22T13:22:30;29.20;34.30
64654;DHT22;51065;48.884;12.598;2023-07-22T13:24:56;28.40;35.20
64654;DHT22;51065;48.884;12.598;2023-07-22T13:27:21;28.20;36.80
64654;DHT22;51065;48.884;12.598;2023-07-22T13:29:47;28.20;36.20
64654;DHT22;51065;48.884;12.598;2023-07-22T13:32:12;28.60;37.00
64654;DHT22;51065;48.884;12.598;2023-07-22T13:34:38;29.00;36.30
64654;DHT22;51065;48.884;12.598;2023-07-22T13:37:04;29.60;35.80
64654;DHT22;51065;48.884;12.598;2023-07-22T13:39:29;29.80;34.50
64654;DHT22;51065;48.884;12.598;2023-07-22T13:41:55;29.90;33.80
64654;DHT22;51065;48.884;12.598;2023-07-22T13:44:20;29.30;34.60
64654;DHT22;51065;48.884;12.598;2023-07-22T13:46:46;28.80;34.70
64654;DHT22;51065;48.884;12.598;2023-07-22T13:49:11;28.50;35.50
64654;DHT22;51065;48.884;12.598;2023-07-22T13:51:37;28.40;36.40
64654;DHT22;51065;48.884;12.598;2023-07-22T13:54:02;28.30;35.40
64654;DHT22;51065;48.884;12.598;2023-07-22T13:56:28;27.40;36.20
64654;DHT22;51065;48.884;12.598;2023-07-22T13:58:54;27.00;36.50
64654;DHT22;51065;48.884;12.598;2023-07-22T14:01:20;26.60;37.60
64654;DHT22;51065;48.884;12.598;2023-07-22T14:03:46;26.40;37.80
64654;DHT22;51065;48.884;12.598;2023-07-22T14:06:11;26.60;38.10
64654;DHT22;51065;48.884;12.598;2023-07-22T14:08:37;26.70;38.00
64654;DHT22;51065;48.884;12.598;2023-07-22T14:11:05;26.50;37.50
64654;DHT22;51065;48.884;12.598;2023-07-22T14:13:31;26.50;36.90
64654;DHT22;51065;48.884;12.598;2023-07-22T14:15:56;26.50;37.60
64654;DHT22;51065;48.884;12.598;2023-07-22T14:18:22;26.70;37.50
64654;DHT22;51065;48.884;12.598;2023-07-22T14:20:48;26.90;37.80
64654;DHT22;51065;48.884;12.598;2023-07-22T14:23:14;27.00;37.10
64654;DHT22;51065;48.884;12.598;2023-07-22T14:25:40;26.60;38.00
64654;DHT22;51065;48.884;12.598;2023-07-22T14:28:05;26.70;39.80
64654;DHT22;51065;48.884;12.598;2023-07-22T14:30:31;27.50;38.40
64654;DHT22;51065;48.884;12.598;2023-07-22T14:32:57;28.30;36.30
64654;DHT22;51065;48.884;12.598;2023-07-22T14:35:23;28.40;37.00
64654;DHT22;51065;48.884;12.598;2023-07-22T14:37:49;28.60;34.80
64654;DHT22;51065;48.884;12.598;2023-07-22T14:40:14;28.60;34.40
64654;DHT22;51065;48.884;12.598;2023-07-22T14:42:40;28.90;35.30
64654;DHT22;51065;48.884;12.598;2023-07-22T14:45:06;29.10;33.70
64654;DHT22;51065;48.884;12.598;2023-07-22T14:47:32;28.60;34.10
64654;DHT22;51065;48.884;12.598;2023-07-22T14:49:58;28.10;34.20
64654;DHT22;51065;48.884;12.598;2023-07-22T14:52:23;27.90;35.60
64654;DHT22;51065;48.884;12.598;2023-07-22T14:54:49;28.00;35.40
64654;DHT22;51065;48.884;12.598;2023-07-22T14:57:18;28.10;34.10
64654;DHT22;51065;48.884;12.598;2023-07-22T14:59:43;27.90;35.60
64654;DHT22;51065;48.884;12.598;2023-07-22T15:02:09;27.80;35.30
64654;DHT22;51065;48.884;12.598;2023-07-22T15:04:36;28.00;36.10
64654;DHT22;51065;48.884;12.598;2023-07-22T15:07:02;27.50;35.40
64654;DHT22;51065;48.884;12.598;2023-07-22T15:09:27;27.30;37.40
64654;DHT22;51065;48.884;12.598;2023-07-22T15:11:53;27.00;36.40
64654;DHT22;51065;48.884;12.598;2023-07-22T15:14:18;26.90;37.80
64654;DHT22;51065;48.884;12.598;2023-07-22T15:16:44;26.40;37.00
64654;DHT22;51065;48.884;12.598;2023-07-22T15:19:11;26.10;37.90
64654;DHT22;51065;48.884;12.598;2023-07-22T15:21:36;26.30;37.40
64654;DHT22;51065;48.884;12.598;2023-07-22T15:24:02;26.80;36.50
64654;DHT22;51065;48.884;12.598;2023-07-22T15:26:27;27.10;35.80
64654;DHT22;51065;48.884;12.598;2023-07-22T15:28:53;27.20;36.40
64654;DHT22;51065;48.884;12.598;2023-07-22T15:31:20;27.90;36.70